Time;durP1;ratioP1;P1;durP2;ratioP2;P2;SDS_P1;SDS_P2;PMS_P1;PMS_P2;Temp;Humidity;BMP_temperature;BMP_pressure;BME280_temperature;BME280_humidity;BME280_pressure;Samples;Min_cycle;Max_cycle;Signal;HPM_P1;HPM_P2
2022/07/07 00:02:20;;;;;;;0.00;0.00;;;;;;;;;;5067161;28;20758;-75
2022/07/07 00:04:49;;;;;;;0.00;0.00;;;;;;;;;;5065575;28;20309;-74
2022/07/07 00:07:16;;;;;;;0.00;0.00;;;;;;;;;;5083345;28;20194;-75
2022/07/07 00:09:44;;;;;;;0.00;0.00;;;;;;;;;;5065372;28;20229;-75
2022/07/07 00:12:11;;;;;;;0.00;0.00;;;;;;;;;;5076575;28;20222;-75
2022/07/07 00:14:38;;;;;;;0.00;0.00;;;;;;;;;;5065789;28;20236;-75
2022/07/07 00:17:06;;;;;;;0.00;0.00;;;;;;;;;;5080958;28;20196;-74
2022/07/07 00:19:33;;;;;;;0.00;0.00;;;;;;;;;;5064757;28;20201;-75
2022/07/07 00:22:02;;;;;;;0.00;0.00;;;;;;;;;;5080514;28;20225;-75
2022/07/07 00:24:30;;;;;;;0.10;0.10;;;;;;;;;;5059117;28;20207;-75
2022/07/07 00:26:57;;;;;;;0.00;0.00;;;;;;;;;;5063351;28;20202;-74
2022/07/07 00:29:25;;;;;;;0.00;0.00;;;;;;;;;;5064229;28;20696;-75
2022/07/07 00:31:52;;;;;;;0.00;0.00;;;;;;;;;;5086247;28;20233;-76
2022/07/07 00:34:19;;;;;;;0.00;0.00;;;;;;;;;;5078711;28;20248;-74
2022/07/07 00:36:47;;;;;;;0.00;0.00;;;;;;;;;;5078141;28;20314;-75
2022/07/07 00:39:15;;;;;;;0.00;0.00;;;;;;;;;;5066179;28;20226;-74
2022/07/07 00:41:42;;;;;;;0.00;0.00;;;;;;;;;;5061664;28;20303;-74
2022/07/07 00:44:12;;;;;;;0.00;0.00;;;;;;;;;;5067462;28;20294;-76
2022/07/07 00:46:43;;;;;;;0.00;0.00;;;;;;;;;;5081054;28;20207;-75
2022/07/07 00:49:11;;;;;;;0.00;0.00;;;;;;;;;;5062504;28;20317;-75
2022/07/07 00:51:38;;;;;;;0.00;0.00;;;;;;;;;;5063021;28;20222;-74
2022/07/07 00:54:05;;;;;;;0.00;0.00;;;;;;;;;;5061667;28;20297;-75
2022/07/07 00:56:34;;;;;;;0.00;0.00;;;;;;;;;;5084066;28;20288;-74
2022/07/07 00:59:06;;;;;;;0.00;0.00;;;;;;;;;;5065460;28;20198;-74
2022/07/07 01:01:34;;;;;;;0.00;0.00;;;;;;;;;;5059368;28;20237;-74
2022/07/07 01:04:03;;;;;;;0.03;0.03;;;;;;;;;;5067624;28;20255;-74
2022/07/07 01:06:31;;;;;;;0.00;0.00;;;;;;;;;;5065368;28;20194;-74
2022/07/07 01:08:58;;;;;;;0.00;0.00;;;;;;;;;;5085178;28;20245;-74
2022/07/07 01:11:26;;;;;;;0.00;0.00;;;;;;;;;;5066941;28;20217;-74
2022/07/07 01:13:54;;;;;;;0.00;0.00;;;;;;;;;;5066926;28;20206;-73
2022/07/07 01:16:22;;;;;;;0.00;0.00;;;;;;;;;;5059729;28;20297;-74
2022/07/07 01:18:49;;;;;;;0.00;0.00;;;;;;;;;;5058480;28;20265;-74
2022/07/07 01:21:18;;;;;;;0.07;0.07;;;;;;;;;;5063802;28;20221;-74
2022/07/07 01:23:47;;;;;;;0.10;0.10;;;;;;;;;;5084539;28;20193;-74
2022/07/07 01:26:14;;;;;;;0.10;0.10;;;;;;;;;;5064728;28;20212;-74
2022/07/07 01:28:42;;;;;;;0.00;0.00;;;;;;;;;;5080472;28;20300;-74
2022/07/07 01:31:10;;;;;;;0.00;0.00;;;;;;;;;;5061102;28;20225;-74
2022/07/07 01:33:37;;;;;;;0.00;0.00;;;;;;;;;;5061563;28;20201;-75
2022/07/07 01:36:05;;;;;;;0.00;0.00;;;;;;;;;;5074020;28;20240;-74
2022/07/07 01:38:33;;;;;;;0.00;0.00;;;;;;;;;;5066220;28;20285;-74
2022/07/07 01:41:02;;;;;;;0.00;0.00;;;;;;;;;;5077468;28;20218;-75
2022/07/07 01:43:29;;;;;;;0.00;0.00;;;;;;;;;;5057000;28;20206;-74
2022/07/07 01:45:57;;;;;;;0.00;0.00;;;;;;;;;;5079164;28;20233;-74
2022/07/07 01:48:24;;;;;;;0.03;0.03;;;;;;;;;;5064416;28;20210;-74
2022/07/07 01:50:52;;;;;;;0.00;0.00;;;;;;;;;;5062103;28;20342;-74
2022/07/07 01:53:19;;;;;;;0.00;0.00;;;;;;;;;;5064196;28;20198;-74
2022/07/07 01:55:46;;;;;;;0.00;0.00;;;;;;;;;;5060966;28;20194;-75
2022/07/07 01:58:15;;;;;;;0.00;0.00;;;;;;;;;;5083802;28;20206;-74
2022/07/07 02:00:42;;;;;;;0.00;0.00;;;;;;;;;;5061119;28;20265;-74
2022/07/07 02:03:09;;;;;;;0.00;0.00;;;;;;;;;;5079569;28;20209;-73
2022/07/07 02:05:37;;;;;;;0.00;0.00;;;;;;;;;;5083717;28;20186;-74
2022/07/07 02:08:04;;;;;;;0.10;0.10;;;;;;;;;;5066181;28;20221;-74
2022/07/07 02:13:18;;;;;;;0.00;0.00;;;;;;;;;;5065313;28;20628;-74
2022/07/07 02:15:45;;;;;;;0.00;0.00;;;;;;;;;;5077056;28;20186;-76
2022/07/07 02:18:13;;;;;;;0.00;0.00;;;;;;;;;;5070292;28;20270;-74
2022/07/07 02:20:40;;;;;;;0.10;0.10;;;;;;;;;;5081030;28;20326;-74
2022/07/07 02:23:07;;;;;;;0.00;0.00;;;;;;;;;;5069221;28;20293;-74
2022/07/07 02:25:35;;;;;;;0.00;0.00;;;;;;;;;;5068166;28;20205;-75
2022/07/07 02:28:02;;;;;;;0.10;0.10;;;;;;;;;;5057770;28;20220;-74
2022/07/07 02:30:31;;;;;;;0.00;0.00;;;;;;;;;;5079799;28;20581;-73
2022/07/07 02:32:58;;;;;;;0.10;0.10;;;;;;;;;;5081505;28;20194;-73
2022/07/07 02:35:26;;;;;;;0.00;0.00;;;;;;;;;;5056915;28;20195;-73
2022/07/07 02:37:53;;;;;;;0.07;0.07;;;;;;;;;;5063306;28;20206;-75
2022/07/07 02:40:21;;;;;;;0.00;0.00;;;;;;;;;;5060308;28;20189;-75
2022/07/07 02:42:48;;;;;;;0.00;0.00;;;;;;;;;;5065098;28;20202;-75
2022/07/07 02:45:15;;;;;;;0.00;0.00;;;;;;;;;;5079774;28;20190;-75
2022/07/07 02:47:44;;;;;;;0.07;0.07;;;;;;;;;;5060058;28;20207;-74
2022/07/07 02:50:12;;;;;;;0.03;0.03;;;;;;;;;;5064553;28;20217;-75
2022/07/07 02:52:39;;;;;;;0.07;0.07;;;;;;;;;;5068440;28;20205;-73
2022/07/07 02:55:07;;;;;;;0.03;0.03;;;;;;;;;;5053855;28;20198;-72
2022/07/07 02:57:34;;;;;;;0.00;0.00;;;;;;;;;;5086582;28;20201;-73
2022/07/07 03:00:02;;;;;;;0.00;0.00;;;;;;;;;;5063987;28;20198;-74
2022/07/07 03:02:29;;;;;;;0.10;0.10;;;;;;;;;;5074755;28;20229;-75
2022/07/07 03:04:58;;;;;;;0.07;0.07;;;;;;;;;;5083582;28;20297;-76
2022/07/07 03:07:25;;;;;;;0.00;0.00;;;;;;;;;;5085291;28;20224;-76
2022/07/07 03:09:53;;;;;;;0.00;0.00;;;;;;;;;;5083657;28;20221;-72
2022/07/07 03:12:20;;;;;;;0.00;0.00;;;;;;;;;;5082043;28;20226;-75
2022/07/07 03:14:47;;;;;;;0.00;0.00;;;;;;;;;;5069826;28;20198;-74
2022/07/07 03:17:15;;;;;;;0.10;0.10;;;;;;;;;;5082592;28;20204;-75
2022/07/07 03:19:42;;;;;;;0.03;0.03;;;;;;;;;;5077465;28;20212;-75
2022/07/07 03:22:11;;;;;;;0.10;0.10;;;;;;;;;;5085585;28;20205;-73
2022/07/07 03:24:38;;;;;;;0.10;0.10;;;;;;;;;;5067041;28;20198;-75
2022/07/07 03:27:06;;;;;;;0.10;0.10;;;;;;;;;;5060157;28;20230;-74
2022/07/07 03:29:33;;;;;;;0.00;0.00;;;;;;;;;;5068461;28;20222;-75
2022/07/07 03:32:00;;;;;;;0.00;0.00;;;;;;;;;;5066998;28;20301;-75
2022/07/07 03:34:28;;;;;;;0.10;0.10;;;;;;;;;;5060884;28;20284;-76
2022/07/07 03:36:55;;;;;;;0.00;0.00;;;;;;;;;;5057713;28;20210;-75
2022/07/07 03:39:24;;;;;;;0.10;0.10;;;;;;;;;;5066905;28;20578;-75
2022/07/07 03:41:51;;;;;;;0.03;0.03;;;;;;;;;;5069095;28;20226;-76
2022/07/07 03:44:19;;;;;;;0.00;0.00;;;;;;;;;;5052444;28;20289;-75
2022/07/07 03:46:47;;;;;;;0.10;0.10;;;;;;;;;;5066211;28;20202;-74
2022/07/07 03:49:14;;;;;;;0.00;0.00;;;;;;;;;;5051036;28;20317;-75
2022/07/07 03:51:42;;;;;;;0.10;0.10;;;;;;;;;;5086773;28;20218;-74
2022/07/07 03:54:09;;;;;;;0.00;0.00;;;;;;;;;;5058611;28;20202;-75
2022/07/07 03:56:38;;;;;;;0.10;0.10;;;;;;;;;;5056713;28;20210;-76
2022/07/07 03:59:06;;;;;;;0.10;0.10;;;;;;;;;;5061748;28;20585;-74
2022/07/07 04:01:33;;;;;;;0.00;0.00;;;;;;;;;;5077422;28;20304;-76
2022/07/07 04:04:01;;;;;;;0.10;0.10;;;;;;;;;;5068833;28;20210;-76
2022/07/07 04:06:31;;;;;;;0.00;0.00;;;;;;;;;;5058857;28;20587;-75
2022/07/07 04:08:58;;;;;;;0.00;0.00;;;;;;;;;;5063862;28;20208;-77
2022/07/07 04:11:26;;;;;;;0.00;0.00;;;;;;;;;;5066850;28;20229;-74
2022/07/07 04:13:55;;;;;;;0.03;0.03;;;;;;;;;;5061538;28;20210;-76
2022/07/07 04:16:22;;;;;;;0.10;0.10;;;;;;;;;;5066660;28;20213;-76
2022/07/07 04:18:50;;;;;;;0.07;0.07;;;;;;;;;;5068920;28;20255;-76
2022/07/07 04:21:17;;;;;;;0.00;0.00;;;;;;;;;;5066591;28;20218;-77
2022/07/07 04:23:45;;;;;;;0.00;0.00;;;;;;;;;;5068482;28;20243;-77
2022/07/07 04:26:12;;;;;;;0.00;0.00;;;;;;;;;;5079943;28;20227;-75
2022/07/07 04:28:39;;;;;;;0.07;0.07;;;;;;;;;;5062201;28;20243;-76
2022/07/07 04:31:08;;;;;;;0.10;0.10;;;;;;;;;;5083110;28;20233;-76
2022/07/07 04:33:35;;;;;;;0.10;0.10;;;;;;;;;;5063971;28;20214;-77
2022/07/07 04:36:03;;;;;;;0.10;0.10;;;;;;;;;;5085693;28;20600;-79
2022/07/07 04:38:30;;;;;;;0.00;0.00;;;;;;;;;;5068598;28;20237;-78
2022/07/07 04:40:57;;;;;;;0.00;0.00;;;;;;;;;;5085317;28;20218;-77
2022/07/07 04:43:25;;;;;;;0.00;0.00;;;;;;;;;;5066075;28;20201;-79
2022/07/07 04:45:52;;;;;;;0.10;0.10;;;;;;;;;;5065399;28;20271;-78
2022/07/07 04:48:21;;;;;;;0.00;0.00;;;;;;;;;;5061679;28;20259;-78
2022/07/07 04:50:49;;;;;;;0.00;0.00;;;;;;;;;;5083296;28;20718;-78
2022/07/07 04:53:16;;;;;;;0.10;0.10;;;;;;;;;;5082139;28;20955;-79
2022/07/07 04:55:43;;;;;;;0.00;0.00;;;;;;;;;;5067963;28;20285;-77
2022/07/07 04:58:11;;;;;;;0.00;0.00;;;;;;;;;;5060303;28;20202;-79
2022/07/07 05:00:38;;;;;;;0.00;0.00;;;;;;;;;;5062141;28;20234;-79
2022/07/07 05:03:06;;;;;;;0.10;0.10;;;;;;;;;;5067910;28;20229;-79
2022/07/07 05:05:34;;;;;;;0.00;0.00;;;;;;;;;;5065545;28;20206;-78
2022/07/07 05:08:02;;;;;;;0.10;0.10;;;;;;;;;;5082946;28;20209;-79
2022/07/07 05:10:30;;;;;;;0.07;0.07;;;;;;;;;;5062287;28;20217;-79
2022/07/07 05:12:58;;;;;;;0.10;0.10;;;;;;;;;;5068600;28;20202;-80
2022/07/07 05:15:26;;;;;;;0.00;0.00;;;;;;;;;;5060794;28;20799;-78
2022/07/07 05:17:53;;;;;;;0.10;0.10;;;;;;;;;;5068266;28;20202;-78
2022/07/07 05:20:21;;;;;;;0.00;0.00;;;;;;;;;;5084739;28;20217;-79
2022/07/07 05:22:50;;;;;;;0.00;0.00;;;;;;;;;;5067763;28;20202;-79
2022/07/07 05:25:17;;;;;;;0.07;0.07;;;;;;;;;;5066050;28;20206;-81
2022/07/07 05:27:45;;;;;;;0.00;0.00;;;;;;;;;;5065644;28;20271;-80
2022/07/07 05:30:13;;;;;;;0.00;0.00;;;;;;;;;;5060233;28;20215;-80
2022/07/07 05:32:40;;;;;;;0.00;0.00;;;;;;;;;;5067599;28;20656;-79
2022/07/07 05:35:08;;;;;;;0.00;0.00;;;;;;;;;;5069695;28;20190;-80
2022/07/07 05:37:36;;;;;;;0.10;0.10;;;;;;;;;;5075123;28;20216;-79
2022/07/07 05:40:06;;;;;;;0.10;0.10;;;;;;;;;;5083893;28;20561;-83
2022/07/07 05:42:34;;;;;;;0.10;0.10;;;;;;;;;;5081036;28;20205;-80
2022/07/07 05:45:01;;;;;;;0.00;0.00;;;;;;;;;;5067479;28;20193;-80
2022/07/07 05:47:29;;;;;;;0.10;0.10;;;;;;;;;;5067301;28;20198;-81
2022/07/07 05:49:57;;;;;;;0.00;0.00;;;;;;;;;;5079375;28;20221;-80
2022/07/07 05:52:26;;;;;;;0.00;0.00;;;;;;;;;;5068783;28;20228;-80
2022/07/07 05:55:01;;;;;;;0.10;0.10;;;;;;;;;;5087177;28;20233;-80
2022/07/07 05:57:30;;;;;;;0.10;0.10;;;;;;;;;;5084945;28;20300;-81
2022/07/07 05:59:57;;;;;;;0.10;0.10;;;;;;;;;;5064057;28;20228;-78
2022/07/07 06:02:24;;;;;;;0.00;0.00;;;;;;;;;;5066102;28;20216;-77
2022/07/07 06:04:52;;;;;;;0.10;0.10;;;;;;;;;;5067015;28;20199;-78
2022/07/07 06:07:21;;;;;;;0.00;0.00;;;;;;;;;;5061467;28;20233;-79
2022/07/07 06:09:49;;;;;;;0.00;0.00;;;;;;;;;;5063695;28;20221;-80
2022/07/07 06:12:19;;;;;;;0.00;0.00;;;;;;;;;;5058782;28;20282;-80
2022/07/07 06:14:47;;;;;;;0.00;0.00;;;;;;;;;;5066466;28;20244;-80
2022/07/07 06:17:15;;;;;;;0.10;0.10;;;;;;;;;;5066004;28;20198;-80
2022/07/07 06:19:43;;;;;;;0.00;0.00;;;;;;;;;;5069461;28;20202;-79
2022/07/07 06:22:10;;;;;;;0.00;0.00;;;;;;;;;;5066278;28;20308;-78
2022/07/07 06:24:38;;;;;;;0.00;0.00;;;;;;;;;;5063180;28;20194;-80
2022/07/07 06:27:06;;;;;;;0.10;0.10;;;;;;;;;;5067499;28;20266;-79
2022/07/07 06:29:33;;;;;;;0.00;0.00;;;;;;;;;;5067765;28;20226;-79
2022/07/07 06:32:03;;;;;;;0.10;0.10;;;;;;;;;;5066463;28;20214;-79
2022/07/07 06:34:30;;;;;;;0.10;0.10;;;;;;;;;;5059692;28;20230;-77
2022/07/07 06:36:58;;;;;;;0.00;0.00;;;;;;;;;;5063956;28;20205;-78
2022/07/07 06:39:25;;;;;;;0.10;0.10;;;;;;;;;;5060179;28;20222;-78
2022/07/07 06:41:53;;;;;;;0.00;0.00;;;;;;;;;;5066729;28;20214;-76
2022/07/07 06:44:23;;;;;;;0.00;0.00;;;;;;;;;;5061943;28;20239;-76
2022/07/07 06:46:53;;;;;;;0.10;0.10;;;;;;;;;;5064716;28;20207;-80
2022/07/07 06:49:22;;;;;;;0.00;0.00;;;;;;;;;;5060141;28;20206;-79
2022/07/07 06:51:50;;;;;;;0.00;0.00;;;;;;;;;;5063276;28;20229;-80
2022/07/07 06:54:17;;;;;;;0.10;0.10;;;;;;;;;;5062441;28;20252;-76
2022/07/07 06:56:45;;;;;;;0.00;0.00;;;;;;;;;;5068474;28;20194;-80
2022/07/07 06:59:12;;;;;;;0.10;0.10;;;;;;;;;;5085499;28;20201;-81
2022/07/07 07:01:44;;;;;;;0.00;0.00;;;;;;;;;;5066897;28;20289;-82
2022/07/07 07:04:13;;;;;;;0.10;0.10;;;;;;;;;;5063250;28;20195;-79
2022/07/07 07:06:42;;;;;;;0.00;0.00;;;;;;;;;;5070956;28;20305;-81
2022/07/07 07:09:10;;;;;;;0.00;0.00;;;;;;;;;;5060215;28;20202;-79
2022/07/07 07:11:37;;;;;;;0.00;0.00;;;;;;;;;;5070751;28;20356;-80
2022/07/07 07:14:06;;;;;;;0.10;0.10;;;;;;;;;;5068996;28;20206;-79
2022/07/07 07:16:33;;;;;;;0.03;0.03;;;;;;;;;;5069108;28;20198;-81
2022/07/07 07:19:00;;;;;;;0.00;0.00;;;;;;;;;;5070467;28;20210;-81
2022/07/07 07:21:28;;;;;;;0.00;0.00;;;;;;;;;;5067768;28;20271;-80
2022/07/07 07:23:57;;;;;;;0.10;0.10;;;;;;;;;;5069380;28;20260;-83
2022/07/07 07:26:26;;;;;;;0.10;0.10;;;;;;;;;;5067350;28;20207;-82
2022/07/07 07:28:53;;;;;;;0.00;0.00;;;;;;;;;;5066581;28;20201;-82
2022/07/07 07:31:21;;;;;;;0.10;0.10;;;;;;;;;;5065586;28;20253;-80
2022/07/07 07:34:11;;;;;;;0.10;0.10;;;;;;;;;;5075976;28;20217;-80
2022/07/07 07:36:38;;;;;;;0.10;0.10;;;;;;;;;;5063359;28;20198;-81
2022/07/07 07:39:07;;;;;;;0.10;0.10;;;;;;;;;;5070639;28;20205;-80
2022/07/07 07:41:34;;;;;;;0.10;0.10;;;;;;;;;;5068710;28;20225;-80
2022/07/07 07:44:01;;;;;;;0.00;0.00;;;;;;;;;;5070443;28;20297;-79
2022/07/07 07:46:28;;;;;;;0.10;0.10;;;;;;;;;;5069228;28;20229;-78
2022/07/07 07:48:56;;;;;;;0.10;0.10;;;;;;;;;;5063773;28;20237;-78
2022/07/07 07:51:23;;;;;;;0.00;0.00;;;;;;;;;;5065210;28;20764;-78
2022/07/07 07:53:50;;;;;;;0.10;0.10;;;;;;;;;;5066998;28;20210;-77
2022/07/07 07:56:19;;;;;;;0.00;0.00;;;;;;;;;;5066931;28;20252;-78
2022/07/07 07:58:46;;;;;;;0.00;0.00;;;;;;;;;;5082174;28;20198;-77
2022/07/07 08:01:14;;;;;;;0.00;0.00;;;;;;;;;;5058839;28;20210;-78
2022/07/07 08:03:41;;;;;;;0.00;0.00;;;;;;;;;;5082631;28;20198;-77
2022/07/07 08:06:08;;;;;;;0.00;0.00;;;;;;;;;;5062555;28;20578;-78
2022/07/07 08:08:35;;;;;;;0.00;0.00;;;;;;;;;;5065948;28;20210;-78
2022/07/07 08:11:05;;;;;;;0.00;0.00;;;;;;;;;;5070123;28;20253;-78
2022/07/07 08:13:34;;;;;;;0.00;0.00;;;;;;;;;;5083276;28;20740;-78
2022/07/07 08:16:01;;;;;;;0.10;0.10;;;;;;;;;;5081215;28;20221;-80
2022/07/07 08:18:29;;;;;;;0.00;0.00;;;;;;;;;;5089102;28;20642;-79
2022/07/07 08:20:57;;;;;;;0.00;0.00;;;;;;;;;;5070187;28;20224;-79
2022/07/07 08:23:24;;;;;;;0.00;0.00;;;;;;;;;;5068122;28;20199;-79
2022/07/07 08:25:51;;;;;;;0.10;0.10;;;;;;;;;;5055732;28;20202;-78
2022/07/07 08:28:18;;;;;;;0.10;0.10;;;;;;;;;;5067904;28;20197;-78
2022/07/07 08:30:47;;;;;;;0.00;0.00;;;;;;;;;;5069906;28;20232;-80
2022/07/07 08:33:15;;;;;;;0.10;0.10;;;;;;;;;;5058694;28;20279;-77
2022/07/07 08:35:42;;;;;;;0.00;0.00;;;;;;;;;;5060379;28;20198;-77
2022/07/07 08:38:09;;;;;;;0.07;0.07;;;;;;;;;;5064435;28;20741;-79
2022/07/07 08:40:37;;;;;;;0.00;0.00;;;;;;;;;;5067474;28;20229;-75
2022/07/07 08:43:04;;;;;;;0.00;0.00;;;;;;;;;;5077327;28;20209;-77
2022/07/07 08:45:31;;;;;;;0.00;0.00;;;;;;;;;;5062157;28;20225;-77
2022/07/07 08:48:00;;;;;;;0.00;0.00;;;;;;;;;;5067968;28;20202;-76
2022/07/07 08:50:28;;;;;;;0.00;0.00;;;;;;;;;;5075336;28;20320;-77
2022/07/07 08:52:55;;;;;;;0.00;0.00;;;;;;;;;;5064038;28;20199;-77
2022/07/07 08:55:24;;;;;;;0.10;0.10;;;;;;;;;;5059105;28;20651;-77
2022/07/07 08:57:52;;;;;;;0.00;0.00;;;;;;;;;;5062813;28;20206;-76
2022/07/07 09:00:19;;;;;;;0.07;0.07;;;;;;;;;;5077758;28;20198;-77
2022/07/07 09:02:46;;;;;;;0.00;0.00;;;;;;;;;;5064104;28;20576;-76
2022/07/07 09:05:15;;;;;;;0.10;0.10;;;;;;;;;;5064843;28;20350;-77
2022/07/07 09:07:47;;;;;;;0.10;0.10;;;;;;;;;;5082927;28;20201;-76
2022/07/07 09:10:27;;;;;;;0.10;0.10;;;;;;;;;;5060104;28;20301;-77
2022/07/07 09:12:55;;;;;;;0.10;0.10;;;;;;;;;;5064470;28;20411;-76
2022/07/07 09:15:22;;;;;;;0.10;0.10;;;;;;;;;;5063878;28;20309;-77
2022/07/07 09:17:50;;;;;;;0.00;0.00;;;;;;;;;;5064086;28;20264;-76
2022/07/07 09:20:19;;;;;;;0.00;0.00;;;;;;;;;;5063072;28;20198;-77
2022/07/07 09:22:47;;;;;;;0.03;0.03;;;;;;;;;;5066960;28;20197;-76
2022/07/07 09:25:15;;;;;;;0.00;0.00;;;;;;;;;;5084892;28;20284;-75
2022/07/07 09:27:53;;;;;;;0.10;0.10;;;;;;;;;;5065818;28;20663;-74
2022/07/07 09:30:31;;;;;;;0.00;0.00;;;;;;;;;;5067081;28;20292;-75
2022/07/07 09:32:59;;;;;;;0.00;0.00;;;;;;;;;;5065823;28;20198;-76
2022/07/07 09:38:17;;;;;;;0.00;0.00;;;;;;;;;;5017407;28;20220;-75
2022/07/07 09:40:52;;;;;;;0.00;0.00;;;;;;;;;;5063851;28;20232;-75
2022/07/07 09:43:19;;;;;;;0.00;0.00;;;;;;;;;;5065449;28;20254;-75
2022/07/07 09:45:48;;;;;;;0.00;0.00;;;;;;;;;;5084885;28;20722;-75
2022/07/07 09:48:15;;;;;;;0.10;0.10;;;;;;;;;;5061682;28;20198;-76
2022/07/07 09:50:44;;;;;;;0.00;0.00;;;;;;;;;;5062280;28;20250;-75
2022/07/07 09:53:11;;;;;;;0.00;0.00;;;;;;;;;;5081337;28;20194;-75
2022/07/07 09:55:38;;;;;;;0.00;0.00;;;;;;;;;;5080399;28;20205;-75
2022/07/07 09:58:06;;;;;;;0.00;0.00;;;;;;;;;;5076948;28;20683;-75
2022/07/07 10:00:33;;;;;;;0.00;0.00;;;;;;;;;;5073835;28;20249;-75
2022/07/07 10:03:01;;;;;;;0.00;0.00;;;;;;;;;;5060667;28;20194;-75
2022/07/07 10:05:29;;;;;;;0.00;0.00;;;;;;;;;;5079449;28;20190;-75
2022/07/07 10:07:59;;;;;;;0.00;0.00;;;;;;;;;;5075921;28;20288;-75
2022/07/07 10:10:27;;;;;;;0.00;0.00;;;;;;;;;;5063837;28;20196;-75
2022/07/07 10:12:55;;;;;;;0.00;0.00;;;;;;;;;;5083124;28;20324;-75
2022/07/07 10:15:25;;;;;;;0.00;0.00;;;;;;;;;;5079420;28;20214;-75
2022/07/07 10:18:15;;;;;;;0.00;0.00;;;;;;;;;;5079334;28;20220;-74
2022/07/07 10:20:43;;;;;;;0.00;0.00;;;;;;;;;;5081779;28;20225;-75
2022/07/07 10:23:12;;;;;;;0.00;0.00;;;;;;;;;;5058002;28;20209;-74
2022/07/07 10:25:39;;;;;;;0.00;0.00;;;;;;;;;;5059039;28;20203;-75
2022/07/07 10:28:06;;;;;;;0.00;0.00;;;;;;;;;;5059109;28;20285;-75
2022/07/07 10:30:34;;;;;;;0.00;0.00;;;;;;;;;;5069181;28;20228;-75
2022/07/07 10:33:04;;;;;;;0.00;0.00;;;;;;;;;;5087925;28;20221;-75
2022/07/07 10:35:41;;;;;;;0.00;0.00;;;;;;;;;;5075951;28;20186;-75
2022/07/07 10:38:14;;;;;;;0.00;0.00;;;;;;;;;;5066968;28;20210;-75
2022/07/07 10:40:52;;;;;;;0.00;0.00;;;;;;;;;;5065629;28;20226;-75
2022/07/07 10:43:24;;;;;;;0.00;0.00;;;;;;;;;;5085246;28;20190;-75
2022/07/07 10:45:53;;;;;;;0.00;0.00;;;;;;;;;;5063894;28;20203;-75
2022/07/07 10:48:39;;;;;;;0.00;0.00;;;;;;;;;;5061478;28;20293;-75
2022/07/07 10:51:15;;;;;;;0.00;0.00;;;;;;;;;;5060203;28;20214;-74
2022/07/07 10:53:54;;;;;;;0.00;0.00;;;;;;;;;;5081919;28;20198;-74
2022/07/07 10:56:23;;;;;;;0.00;0.00;;;;;;;;;;5080702;28;20206;-75
2022/07/07 10:58:54;;;;;;;0.00;0.00;;;;;;;;;;5082766;28;20210;-74
2022/07/07 11:01:22;;;;;;;0.00;0.00;;;;;;;;;;5086748;28;20221;-74
2022/07/07 11:03:49;;;;;;;0.00;0.00;;;;;;;;;;5069905;28;20275;-75
2022/07/07 11:06:16;;;;;;;0.00;0.00;;;;;;;;;;5068488;28;20220;-75
2022/07/07 11:08:55;;;;;;;0.00;0.00;;;;;;;;;;5066730;28;20202;-75
2022/07/07 11:11:24;;;;;;;0.00;0.00;;;;;;;;;;5082310;28;20230;-74
2022/07/07 11:14:02;;;;;;;0.00;0.00;;;;;;;;;;5061067;28;20237;-75
2022/07/07 11:16:30;;;;;;;0.00;0.00;;;;;;;;;;5059877;28;20675;-76
2022/07/07 11:18:58;;;;;;;0.00;0.00;;;;;;;;;;5088015;28;20197;-71
2022/07/07 11:21:36;;;;;;;0.00;0.00;;;;;;;;;;5061321;28;20214;-70
2022/07/07 11:24:03;;;;;;;0.00;0.00;;;;;;;;;;5057855;28;20220;-70
2022/07/07 11:26:33;;;;;;;0.00;0.00;;;;;;;;;;5076814;28;20190;-71
2022/07/07 11:29:01;;;;;;;0.00;0.00;;;;;;;;;;5064877;28;20202;-71
2022/07/07 11:31:29;;;;;;;0.00;0.00;;;;;;;;;;5066188;28;20229;-68
2022/07/07 11:33:57;;;;;;;0.00;0.00;;;;;;;;;;5069182;28;20204;-69
2022/07/07 11:36:25;;;;;;;0.00;0.00;;;;;;;;;;5061987;28;20199;-69
2022/07/07 11:38:55;;;;;;;0.00;0.00;;;;;;;;;;5066915;28;20237;-67
2022/07/07 11:41:22;;;;;;;0.00;0.00;;;;;;;;;;5084113;28;20229;-68
2022/07/07 11:43:57;;;;;;;0.00;0.00;;;;;;;;;;5065516;28;20202;-67
2022/07/07 11:46:26;;;;;;;0.00;0.00;;;;;;;;;;5067782;28;20201;-68
2022/07/07 11:48:53;;;;;;;0.00;0.00;;;;;;;;;;5062173;28;20209;-69
2022/07/07 11:51:28;;;;;;;0.00;0.00;;;;;;;;;;5068640;28;20229;-68
2022/07/07 11:53:57;;;;;;;0.00;0.00;;;;;;;;;;5063537;28;20216;-68
2022/07/07 11:56:29;;;;;;;0.00;0.00;;;;;;;;;;5081174;28;20264;-68
2022/07/07 11:58:59;;;;;;;0.00;0.00;;;;;;;;;;5059033;28;20208;-68
2022/07/07 12:01:26;;;;;;;0.00;0.00;;;;;;;;;;5066501;28;20278;-68
2022/07/07 12:03:54;;;;;;;0.00;0.00;;;;;;;;;;5057642;28;20205;-69
2022/07/07 12:06:25;;;;;;;0.00;0.00;;;;;;;;;;5058068;28;20357;-69
2022/07/07 12:08:53;;;;;;;0.00;0.00;;;;;;;;;;5066957;28;20209;-69
2022/07/07 12:11:21;;;;;;;0.00;0.00;;;;;;;;;;5081404;28;20314;-69
2022/07/07 12:13:49;;;;;;;0.00;0.00;;;;;;;;;;5083135;28;20324;-69
2022/07/07 12:16:17;;;;;;;0.00;0.00;;;;;;;;;;5078358;28;20206;-69
2022/07/07 12:18:44;;;;;;;0.00;0.00;;;;;;;;;;5084814;28;20189;-68
2022/07/07 12:21:13;;;;;;;0.00;0.00;;;;;;;;;;5067181;28;20218;-67
2022/07/07 12:23:41;;;;;;;0.00;0.00;;;;;;;;;;5081328;28;20198;-69
2022/07/07 12:26:13;;;;;;;0.00;0.00;;;;;;;;;;5084527;28;20221;-68
2022/07/07 12:28:40;;;;;;;0.00;0.00;;;;;;;;;;5077394;28;20277;-68
2022/07/07 12:31:08;;;;;;;0.00;0.00;;;;;;;;;;5085594;28;20221;-67
2022/07/07 12:33:38;;;;;;;0.00;0.00;;;;;;;;;;5067945;28;20222;-68
2022/07/07 12:36:09;;;;;;;0.00;0.00;;;;;;;;;;5062423;28;20230;-68
2022/07/07 12:38:38;;;;;;;0.00;0.00;;;;;;;;;;5081202;28;20187;-69
2022/07/07 12:41:05;;;;;;;0.00;0.00;;;;;;;;;;5078318;28;20221;-67
2022/07/07 12:43:33;;;;;;;0.00;0.00;;;;;;;;;;5066943;28;20277;-68
2022/07/07 12:46:11;;;;;;;0.00;0.00;;;;;;;;;;5083429;28;20244;-68
2022/07/07 12:48:47;;;;;;;0.00;0.00;;;;;;;;;;5082885;28;20198;-68
2022/07/07 12:51:15;;;;;;;0.00;0.00;;;;;;;;;;5064245;28;20302;-68
2022/07/07 12:53:44;;;;;;;0.00;0.00;;;;;;;;;;5065483;28;20271;-67
2022/07/07 12:56:12;;;;;;;0.00;0.00;;;;;;;;;;5077275;28;20742;-68
2022/07/07 12:58:44;;;;;;;0.00;0.00;;;;;;;;;;5067569;28;20284;-68
2022/07/07 13:01:14;;;;;;;0.00;0.00;;;;;;;;;;5061053;28;20320;-68
2022/07/07 13:03:42;;;;;;;0.00;0.00;;;;;;;;;;5074393;28;20281;-68
2022/07/07 13:06:10;;;;;;;0.00;0.00;;;;;;;;;;5066649;28;20206;-68
2022/07/07 13:08:37;;;;;;;0.00;0.00;;;15.90;99.90;;;;;;5075613;28;20194;-69
2022/07/07 13:11:05;;;;;;;0.00;0.00;;;20.80;99.90;;;;;;5061292;28;20235;-71
2022/07/07 13:13:32;;;;;;;0.00;0.00;;;20.80;99.90;;;;;;5082924;28;20333;-68
2022/07/07 13:15:59;;;;;;;0.00;0.00;;;21.00;99.90;;;;;;5064878;28;20214;-68
2022/07/07 13:18:29;;;;;;;0.00;0.00;;;21.10;99.90;;;;;;5072855;28;20202;-69
2022/07/07 13:20:58;;;;;;;0.00;0.00;;;21.00;99.90;;;;;;5058071;28;20245;-68
2022/07/07 13:23:28;;;;;;;0.00;0.00;;;21.00;99.90;;;;;;5077818;28;20194;-68
2022/07/07 13:25:56;;;;;;;0.00;0.00;;;21.10;99.90;;;;;;5062476;28;20197;-67
2022/07/07 13:28:23;;;;;;;0.00;0.00;;;21.10;99.90;;;;;;5063088;28;20202;-68
2022/07/07 13:30:51;;;;;;;0.00;0.00;;;21.20;99.90;;;;;;5082288;28;20247;-69
2022/07/07 13:33:18;;;;;;;0.00;0.00;;;21.30;99.90;;;;;;5063587;28;20228;-68
2022/07/07 13:35:45;;;;;;;0.00;0.00;;;21.30;99.90;;;;;;5061460;28;20201;-68
2022/07/07 13:38:12;;;;;;;0.00;0.00;;;;;;;;;;5073150;28;20691;-68
2022/07/07 13:40:44;;;;;;;0.00;0.00;;;;;;;;;;5079966;28;20216;-68
2022/07/07 13:43:12;;;;;;;0.00;0.00;;;;;;;;;;5068435;28;20225;-69
2022/07/07 13:45:39;;;;;;;0.00;0.00;;;;;;;;;;5064383;28;20197;-71
2022/07/07 13:48:06;;;;;;;0.00;0.00;;;;;;;;;;5069600;28;20198;-70
2022/07/07 13:50:34;;;;;;;0.00;0.00;;;;;;;;;;5065584;28;20226;-70
2022/07/07 13:53:01;;;;;;;0.00;0.00;;;;;;;;;;5054275;28;20214;-71
2022/07/07 13:55:28;;;;;;;0.00;0.00;;;;;;;;;;5065930;28;20205;-70
2022/07/07 13:57:57;;;;;;;0.00;0.00;;;;;;;;;;5058927;28;20310;-70
2022/07/07 14:00:25;;;;;;;0.00;0.00;;;;;;;;;;5064671;28;20197;-70
2022/07/07 14:02:52;;;;;;;0.00;0.00;;;;;;;;;;5079528;28;20656;-70
2022/07/07 14:05:20;;;;;;;0.00;0.00;;;;;;;;;;5059526;28;20209;-70
2022/07/07 14:07:47;;;;;;;0.00;0.00;;;;;;;;;;5070249;28;20312;-70
2022/07/07 14:10:14;;;;;;;0.00;0.00;;;;;;;;;;5081806;28;20198;-69
2022/07/07 14:12:42;;;;;;;0.00;0.00;;;;;;;;;;5061470;28;20222;-69
2022/07/07 14:15:11;;;;;;;0.00;0.00;;;;;;;;;;5068983;28;20190;-69
2022/07/07 14:17:39;;;;;;;0.00;0.00;;;;;;;;;;5077321;28;20198;-69
2022/07/07 14:20:07;;;;;;;0.00;0.00;;;;;;;;;;5066846;28;20215;-69
2022/07/07 14:22:35;;;;;;;0.00;0.00;;;;;;;;;;5079337;28;20281;-69
2022/07/07 14:25:02;;;;;;;0.00;0.00;;;;;;;;;;5068208;28;20210;-70
2022/07/07 14:27:30;;;;;;;0.00;0.00;;;;;;;;;;5062449;28;20218;-69
2022/07/07 14:29:59;;;;;;;0.00;0.00;;;;;;;;;;5079017;28;20198;-68
2022/07/07 14:32:27;;;;;;;0.00;0.00;;;;;;;;;;5067755;28;20205;-70
2022/07/07 14:34:55;;;;;;;0.00;0.00;;;;;;;;;;5059398;28;20210;-72
2022/07/07 14:37:23;;;;;;;0.00;0.00;;;;;;;;;;5060423;28;20215;-70
2022/07/07 14:39:51;;;;;;;0.00;0.00;;;;;;;;;;5086261;28;20198;-70
2022/07/07 14:42:18;;;;;;;0.00;0.00;;;;;;;;;;5086374;28;20206;-73
2022/07/07 14:44:45;;;;;;;0.00;0.00;;;;;;;;;;5067944;28;20660;-70
2022/07/07 14:47:13;;;;;;;0.00;0.00;;;;;;;;;;5085107;28;20202;-71
2022/07/07 14:49:41;;;;;;;0.00;0.00;;;;;;;;;;5084699;28;20198;-71
2022/07/07 14:52:09;;;;;;;0.00;0.00;;;;;;;;;;5060662;28;20222;-71